BTK6763 WAMM-WAAA
Flight info
| Callsign | BTK6763 |
|---|---|
| Flight time | 1h 27m |
| Altitude | 38000 |
| Route | LUANG W32 VENRU |
| Aircraft | A320/M-SDE3FGHIRWY/LB1 |
Departure
| Time | 2026-05-04 09:17 |
|---|---|
| Airport | Sam Ratulangi International Airport (WAMM) |
Arrival
| Time | 2026-05-04 10:44 |
|---|---|
| Airport | Sultan Hasanuddin International Airport (WAAA) |
| Time | Latitude | Longitude | Altitude | Speed | Heading |
|---|---|---|---|---|---|
| 2026-05-04 09:03 | 1.54194 | 124.92339 | 336 ft | 0 kts | 272° |
| 2026-05-04 09:03 | 1.54194 | 124.92340 | 336 ft | 0 kts | 272° |
| 2026-05-04 09:07 | 1.54194 | 124.92380 | 336 ft | 3 kts | 272° |
| 2026-05-04 09:08 | 1.54198 | 124.92404 | 336 ft | 4 kts | 230° |
| 2026-05-04 09:08 | 1.54218 | 124.92417 | 337 ft | 3 kts | 184° |
| 2026-05-04 09:08 | 1.54222 | 124.92418 | 333 ft | 0 kts | 182° |
| 2026-05-04 09:10 | 1.54207 | 124.92417 | 336 ft | 5 kts | 184° |
| 2026-05-04 09:10 | 1.54173 | 124.92414 | 336 ft | 4 kts | 185° |
| 2026-05-04 09:11 | 1.54148 | 124.92412 | 333 ft | 3 kts | 185° |
| 2026-05-04 09:11 | 1.54107 | 124.92409 | 336 ft | 10 kts | 182° |
| 2026-05-04 09:11 | 1.54009 | 124.92409 | 336 ft | 18 kts | 172° |
| 2026-05-04 09:11 | 1.53899 | 124.92432 | 336 ft | 16 kts | 181° |
| 2026-05-04 09:12 | 1.53787 | 124.92431 | 333 ft | 13 kts | 176° |
| 2026-05-04 09:12 | 1.53742 | 124.92479 | 334 ft | 8 kts | 83° |
| 2026-05-04 09:14 | 1.53820 | 124.92594 | 337 ft | 0 kts | 1° |
| 2026-05-04 09:17 | 1.58972 | 124.92440 | 1886 ft | 192 kts | 346° |
| 2026-05-04 09:18 | 1.60343 | 124.92075 | 2173 ft | 216 kts | 345° |
| 2026-05-04 09:18 | 1.61871 | 124.91649 | 2538 ft | 240 kts | 344° |
| 2026-05-04 09:18 | 1.63556 | 124.91185 | 2977 ft | 260 kts | 345° |
| 2026-05-04 09:18 | 1.65336 | 124.90706 | 3706 ft | 268 kts | 345° |
| 2026-05-04 09:19 | 1.67113 | 124.90104 | 4506 ft | 273 kts | 330° |
| 2026-05-04 09:19 | 1.68554 | 124.88872 | 5280 ft | 276 kts | 310° |
| 2026-05-04 09:19 | 1.69811 | 124.87415 | 6125 ft | 278 kts | 310° |
| 2026-05-04 09:19 | 1.71082 | 124.85947 | 6898 ft | 281 kts | 310° |
| 2026-05-04 09:20 | 1.72374 | 124.84463 | 7659 ft | 285 kts | 310° |
| 2026-05-04 09:20 | 1.73687 | 124.82963 | 8396 ft | 289 kts | 310° |
| 2026-05-04 09:20 | 1.75018 | 124.81445 | 9134 ft | 293 kts | 310° |
| 2026-05-04 09:20 | 1.76370 | 124.79904 | 9859 ft | 296 kts | 310° |
| 2026-05-04 09:21 | 1.77747 | 124.78330 | 10340 ft | 309 kts | 310° |
| 2026-05-04 09:21 | 1.79212 | 124.76652 | 10509 ft | 332 kts | 310° |
| 2026-05-04 09:21 | 1.80579 | 124.74702 | 10691 ft | 352 kts | 297° |
| 2026-05-04 09:21 | 1.81515 | 124.72412 | 11134 ft | 360 kts | 285° |
| 2026-05-04 09:22 | 1.81936 | 124.69935 | 11700 ft | 364 kts | 272° |
| 2026-05-04 09:22 | 1.81885 | 124.67391 | 12283 ft | 368 kts | 267° |
| 2026-05-04 09:22 | 1.81767 | 124.64819 | 12871 ft | 372 kts | 267° |
| 2026-05-04 09:22 | 1.81648 | 124.62221 | 13455 ft | 377 kts | 267° |
| 2026-05-04 09:23 | 1.81530 | 124.59626 | 13984 ft | 381 kts | 267° |
| 2026-05-04 09:23 | 1.81412 | 124.56970 | 14494 ft | 384 kts | 267° |
| 2026-05-04 09:23 | 1.81295 | 124.54291 | 15005 ft | 388 kts | 267° |
| 2026-05-04 09:23 | 1.81176 | 124.51587 | 15517 ft | 391 kts | 267° |
| 2026-05-04 09:25 | 1.80300 | 124.32071 | 18786 ft | 412 kts | 267° |
| 2026-05-04 09:25 | 1.80172 | 124.29199 | 19173 ft | 415 kts | 267° |
| 2026-05-04 09:26 | 1.79869 | 124.26327 | 19541 ft | 417 kts | 257° |
| 2026-05-04 09:26 | 1.78970 | 124.23570 | 19925 ft | 419 kts | 244° |
| 2026-05-04 09:26 | 1.77492 | 124.21059 | 20310 ft | 420 kts | 232° |
| 2026-05-04 09:26 | 1.75505 | 124.18919 | 20676 ft | 422 kts | 219° |
| 2026-05-04 09:27 | 1.73096 | 124.17252 | 21044 ft | 423 kts | 208° |
| 2026-05-04 09:27 | 1.70528 | 124.15798 | 21402 ft | 425 kts | 208° |
| 2026-05-04 09:27 | 1.67942 | 124.14338 | 21782 ft | 428 kts | 208° |
| 2026-05-04 09:27 | 1.65345 | 124.12868 | 22145 ft | 430 kts | 208° |
| 2026-05-04 09:28 | 1.62736 | 124.11388 | 22503 ft | 433 kts | 208° |
| 2026-05-04 09:28 | 1.60106 | 124.09894 | 22861 ft | 435 kts | 208° |
| 2026-05-04 09:28 | 1.57465 | 124.08393 | 23215 ft | 438 kts | 208° |
| 2026-05-04 09:28 | 1.54810 | 124.06881 | 23543 ft | 440 kts | 208° |
| 2026-05-04 09:29 | 1.52146 | 124.05361 | 23837 ft | 442 kts | 208° |
| 2026-05-04 09:29 | 1.49468 | 124.03835 | 24137 ft | 444 kts | 208° |
| 2026-05-04 09:29 | 1.46778 | 124.02308 | 24440 ft | 446 kts | 208° |
| 2026-05-04 09:29 | 1.44074 | 124.00775 | 24736 ft | 447 kts | 208° |
| 2026-05-04 09:30 | 1.41366 | 123.99237 | 25021 ft | 449 kts | 208° |
| 2026-05-04 09:30 | 1.38649 | 123.97690 | 25311 ft | 450 kts | 208° |
| 2026-05-04 09:30 | 1.35920 | 123.96133 | 25587 ft | 452 kts | 208° |
| 2026-05-04 09:30 | 1.33223 | 123.94595 | 25861 ft | 454 kts | 208° |
| 2026-05-04 09:31 | 1.30474 | 123.93027 | 26145 ft | 456 kts | 208° |
| 2026-05-04 09:31 | 1.27713 | 123.91454 | 26415 ft | 458 kts | 208° |
| 2026-05-04 09:31 | 1.24942 | 123.89879 | 26690 ft | 459 kts | 208° |
| 2026-05-04 09:31 | 1.22094 | 123.88425 | 26950 ft | 460 kts | 201° |
| 2026-05-04 09:32 | 1.19055 | 123.87439 | 27213 ft | 460 kts | 192° |
| 2026-05-04 09:32 | 1.15889 | 123.86968 | 27473 ft | 460 kts | 182° |
| 2026-05-04 09:34 | 0.93218 | 123.86515 | 29170 ft | 471 kts | 180° |
| 2026-05-04 09:34 | 0.89929 | 123.86451 | 29407 ft | 473 kts | 180° |
| 2026-05-04 09:34 | 0.86638 | 123.86387 | 29659 ft | 474 kts | 180° |
| 2026-05-04 09:34 | 0.83348 | 123.86322 | 30003 ft | 472 kts | 180° |
| 2026-05-04 09:35 | 0.80068 | 123.86258 | 30299 ft | 471 kts | 180° |
| 2026-05-04 09:35 | 0.76792 | 123.86194 | 30615 ft | 470 kts | 180° |
| 2026-05-04 09:35 | 0.73530 | 123.86130 | 30936 ft | 468 kts | 179° |
| 2026-05-04 09:35 | 0.70280 | 123.86068 | 31259 ft | 467 kts | 179° |
| 2026-05-04 09:37 | 0.47846 | 123.85634 | 33560 ft | 456 kts | 179° |
| 2026-05-04 09:37 | 0.44678 | 123.85573 | 33892 ft | 455 kts | 179° |
| 2026-05-04 09:38 | 0.41518 | 123.85516 | 34175 ft | 454 kts | 179° |
| 2026-05-04 09:38 | 0.38359 | 123.85459 | 34435 ft | 453 kts | 179° |
| 2026-05-04 09:38 | 0.35204 | 123.85399 | 34691 ft | 453 kts | 179° |
| 2026-05-04 09:38 | 0.32053 | 123.85339 | 34936 ft | 453 kts | 179° |
| 2026-05-04 09:39 | 0.28909 | 123.85280 | 35171 ft | 452 kts | 179° |
| 2026-05-04 09:39 | 0.25764 | 123.85220 | 35405 ft | 452 kts | 179° |
| 2026-05-04 09:39 | 0.22621 | 123.85162 | 35629 ft | 451 kts | 179° |
| 2026-05-04 09:39 | 0.19483 | 123.85105 | 35856 ft | 451 kts | 179° |
| 2026-05-04 09:40 | 0.16349 | 123.85047 | 36071 ft | 451 kts | 179° |
| 2026-05-04 09:40 | 0.13214 | 123.84979 | 36287 ft | 450 kts | 181° |
| 2026-05-04 09:40 | 0.11148 | 123.84766 | 36424 ft | 452 kts | 188° |
| 2026-05-04 09:40 | 0.08106 | 123.83975 | 36629 ft | 453 kts | 199° |
| 2026-05-04 09:41 | 0.05243 | 123.82640 | 36827 ft | 455 kts | 209° |
| 2026-05-04 09:42 | -0.11604 | 123.68217 | 37868 ft | 456 kts | 220° |
| 2026-05-04 09:43 | -0.16359 | 123.64013 | 37868 ft | 456 kts | 220° |
| 2026-05-04 09:43 | -0.21105 | 123.59818 | 37871 ft | 455 kts | 220° |
| 2026-05-04 09:44 | -0.25844 | 123.55619 | 37869 ft | 455 kts | 220° |
| 2026-05-04 09:46 | -0.44755 | 123.38873 | 37884 ft | 455 kts | 220° |
| 2026-05-04 09:46 | -0.49495 | 123.34679 | 37886 ft | 455 kts | 220° |
| 2026-05-04 09:47 | -0.54232 | 123.30486 | 37893 ft | 455 kts | 220° |
| 2026-05-04 09:49 | -0.73169 | 123.13724 | 37898 ft | 454 kts | 220° |
| 2026-05-04 09:51 | -0.89677 | 122.99108 | 37899 ft | 454 kts | 220° |
| 2026-05-04 09:51 | -0.94444 | 122.94975 | 37904 ft | 453 kts | 220° |
| 2026-05-04 09:52 | -0.99230 | 122.90871 | 37909 ft | 454 kts | 220° |
| 2026-05-04 09:52 | -1.04017 | 122.86761 | 37911 ft | 454 kts | 220° |
| 2026-05-04 09:53 | -1.08792 | 122.82635 | 37914 ft | 454 kts | 220° |
| 2026-05-04 09:53 | -1.13561 | 122.78510 | 37909 ft | 453 kts | 220° |
| 2026-05-04 09:54 | -1.18333 | 122.74383 | 37908 ft | 454 kts | 220° |
| 2026-05-04 09:54 | -1.23115 | 122.70253 | 37908 ft | 455 kts | 220° |
| 2026-05-04 09:55 | -1.27908 | 122.66127 | 37900 ft | 455 kts | 220° |
| 2026-05-04 09:55 | -1.32711 | 122.61992 | 37895 ft | 456 kts | 220° |
| 2026-05-04 09:56 | -1.37520 | 122.57837 | 37891 ft | 457 kts | 220° |
| 2026-05-04 09:56 | -1.42334 | 122.53678 | 37889 ft | 458 kts | 220° |
| 2026-05-04 09:57 | -1.47162 | 122.49506 | 37889 ft | 459 kts | 220° |
| 2026-05-04 09:57 | -1.51963 | 122.45356 | 37889 ft | 459 kts | 220° |
| 2026-05-04 09:58 | -1.56801 | 122.41182 | 37895 ft | 459 kts | 219° |
| 2026-05-04 09:58 | -1.61637 | 122.37004 | 37895 ft | 460 kts | 219° |
| 2026-05-04 10:00 | -1.80998 | 122.20280 | 37897 ft | 460 kts | 219° |
| 2026-05-04 10:04 | -2.14777 | 121.91096 | 37901 ft | 457 kts | 220° |
| 2026-05-04 10:04 | -2.19584 | 121.86937 | 37906 ft | 457 kts | 220° |
| 2026-05-04 10:05 | -2.24386 | 121.82781 | 37906 ft | 457 kts | 220° |
| 2026-05-04 10:05 | -2.29187 | 121.78622 | 37904 ft | 456 kts | 220° |
| 2026-05-04 10:06 | -2.33988 | 121.74470 | 37915 ft | 457 kts | 220° |
| 2026-05-04 10:06 | -2.38800 | 121.70319 | 37919 ft | 457 kts | 220° |
| 2026-05-04 10:08 | -2.55933 | 121.56165 | 37936 ft | 456 kts | 218° |
| 2026-05-04 10:08 | -2.60847 | 121.52145 | 37937 ft | 456 kts | 219° |
| 2026-05-04 10:09 | -2.65712 | 121.48131 | 37939 ft | 457 kts | 219° |
| 2026-05-04 10:09 | -2.70627 | 121.44091 | 37942 ft | 457 kts | 218° |
| 2026-05-04 10:10 | -2.75543 | 121.40066 | 37943 ft | 457 kts | 218° |
| 2026-05-04 10:10 | -2.80448 | 121.36038 | 37935 ft | 456 kts | 218° |
| 2026-05-04 10:11 | -2.85362 | 121.32013 | 37937 ft | 456 kts | 218° |
| 2026-05-04 10:11 | -2.90260 | 121.27996 | 37932 ft | 455 kts | 218° |
| 2026-05-04 10:12 | -2.95157 | 121.23971 | 37932 ft | 455 kts | 218° |
| 2026-05-04 10:12 | -3.00056 | 121.19960 | 37932 ft | 455 kts | 218° |
| 2026-05-04 10:13 | -3.04952 | 121.15942 | 37935 ft | 455 kts | 218° |
| 2026-05-04 10:13 | -3.10392 | 121.12793 | 37935 ft | 452 kts | 198° |
| 2026-05-04 10:14 | -3.16541 | 121.11677 | 37937 ft | 450 kts | 180° |
| 2026-05-04 10:16 | -3.38252 | 121.09913 | 37945 ft | 451 kts | 204° |
| 2026-05-04 10:16 | -3.40999 | 121.08396 | 37939 ft | 452 kts | 214° |
| 2026-05-04 10:16 | -3.45829 | 121.04372 | 37931 ft | 452 kts | 220° |
| 2026-05-04 10:17 | -3.50591 | 121.00240 | 37919 ft | 453 kts | 220° |
| 2026-05-04 10:19 | -3.69642 | 120.83679 | 37909 ft | 453 kts | 220° |
| 2026-05-04 10:19 | -3.74406 | 120.79540 | 37908 ft | 453 kts | 220° |
| 2026-05-04 10:20 | -3.79165 | 120.75401 | 37903 ft | 453 kts | 221° |
| 2026-05-04 10:20 | -3.83923 | 120.71258 | 37898 ft | 453 kts | 221° |
| 2026-05-04 10:21 | -3.88652 | 120.67143 | 37899 ft | 453 kts | 221° |
| 2026-05-04 10:21 | -3.93403 | 120.63004 | 37902 ft | 453 kts | 221° |
| 2026-05-04 10:22 | -4.00540 | 120.56792 | 37907 ft | 453 kts | 221° |
| 2026-05-04 10:23 | -4.05289 | 120.52657 | 37902 ft | 452 kts | 221° |
| 2026-05-04 10:25 | -4.24253 | 120.36125 | 37901 ft | 452 kts | 220° |
| 2026-05-04 10:25 | -4.26755 | 120.34236 | 37753 ft | 451 kts | 211° |
| 2026-05-04 10:25 | -4.29533 | 120.32790 | 37492 ft | 449 kts | 201° |
| 2026-05-04 10:25 | -4.32487 | 120.31784 | 37234 ft | 449 kts | 197° |
| 2026-05-04 10:26 | -4.35474 | 120.30852 | 36888 ft | 449 kts | 197° |
| 2026-05-04 10:26 | -4.38455 | 120.29907 | 36153 ft | 451 kts | 197° |
| 2026-05-04 10:26 | -4.41466 | 120.28943 | 35328 ft | 456 kts | 197° |
| 2026-05-04 10:26 | -4.44507 | 120.27972 | 34425 ft | 462 kts | 197° |
| 2026-05-04 10:27 | -4.47587 | 120.26987 | 33454 ft | 468 kts | 197° |
| 2026-05-04 10:27 | -4.50718 | 120.25984 | 32380 ft | 475 kts | 197° |
| 2026-05-04 10:27 | -4.53889 | 120.24972 | 31299 ft | 482 kts | 197° |
| 2026-05-04 10:27 | -4.57102 | 120.23947 | 30230 ft | 488 kts | 197° |
| 2026-05-04 10:28 | -4.60362 | 120.22906 | 29079 ft | 494 kts | 197° |
| 2026-05-04 10:28 | -4.63608 | 120.21868 | 28438 ft | 486 kts | 197° |
| 2026-05-04 10:28 | -4.66822 | 120.20841 | 27670 ft | 483 kts | 197° |
| 2026-05-04 10:28 | -4.70008 | 120.19824 | 26933 ft | 478 kts | 197° |
| 2026-05-04 10:29 | -4.73167 | 120.18818 | 26200 ft | 474 kts | 197° |
| 2026-05-04 10:29 | -4.76256 | 120.17835 | 25499 ft | 470 kts | 197° |
| 2026-05-04 10:29 | -4.79366 | 120.16845 | 24786 ft | 467 kts | 197° |
| 2026-05-04 10:29 | -4.82458 | 120.15861 | 24083 ft | 465 kts | 197° |
| 2026-05-04 10:30 | -4.85531 | 120.14882 | 23368 ft | 463 kts | 197° |
| 2026-05-04 10:30 | -4.88592 | 120.13904 | 22638 ft | 459 kts | 197° |
| 2026-05-04 10:30 | -4.91610 | 120.12942 | 22022 ft | 453 kts | 197° |
| 2026-05-04 10:30 | -4.94596 | 120.11989 | 21403 ft | 448 kts | 197° |
| 2026-05-04 10:31 | -4.97548 | 120.11044 | 20832 ft | 442 kts | 197° |
| 2026-05-04 10:31 | -5.00456 | 120.10111 | 20282 ft | 437 kts | 197° |
| 2026-05-04 10:32 | -5.15736 | 120.03867 | 17211 ft | 413 kts | 226° |
| 2026-05-04 10:33 | -5.17761 | 120.00643 | 16458 ft | 409 kts | 248° |
| 2026-05-04 10:33 | -5.18279 | 119.98833 | 16071 ft | 408 kts | 259° |
| 2026-05-04 10:33 | -5.18496 | 119.96000 | 15486 ft | 406 kts | 268° |
| 2026-05-04 10:33 | -5.18580 | 119.93171 | 14895 ft | 405 kts | 268° |
| 2026-05-04 10:34 | -5.18662 | 119.90356 | 14297 ft | 404 kts | 268° |
| 2026-05-04 10:34 | -5.18747 | 119.87550 | 13809 ft | 400 kts | 268° |
| 2026-05-04 10:34 | -5.18850 | 119.84800 | 13044 ft | 387 kts | 265° |
| 2026-05-04 10:34 | -5.19337 | 119.82210 | 12473 ft | 369 kts | 252° |
| 2026-05-04 10:35 | -5.20335 | 119.79847 | 11889 ft | 368 kts | 240° |
| 2026-05-04 10:35 | -5.21804 | 119.77765 | 11317 ft | 366 kts | 228° |
| 2026-05-04 10:35 | -5.23513 | 119.75899 | 10976 ft | 361 kts | 226° |
| 2026-05-04 10:35 | -5.25177 | 119.74079 | 10959 ft | 345 kts | 227° |
| 2026-05-04 10:36 | -5.26753 | 119.72343 | 10972 ft | 327 kts | 227° |
| 2026-05-04 10:36 | -5.28247 | 119.70693 | 10970 ft | 312 kts | 227° |
| 2026-05-04 10:36 | -5.29690 | 119.69101 | 10970 ft | 306 kts | 227° |
| 2026-05-04 10:36 | -5.31121 | 119.67523 | 10971 ft | 305 kts | 227° |
| 2026-05-04 10:37 | -5.32548 | 119.65952 | 10971 ft | 304 kts | 227° |
| 2026-05-04 10:37 | -5.33974 | 119.64384 | 10969 ft | 304 kts | 227° |
| 2026-05-04 10:37 | -5.35395 | 119.62819 | 10964 ft | 301 kts | 227° |
| 2026-05-04 10:37 | -5.36617 | 119.61229 | 10959 ft | 276 kts | 242° |
| 2026-05-04 10:39 | -5.33752 | 119.51000 | 8738 ft | 273 kts | 299° |
| 2026-05-04 10:39 | -5.32851 | 119.49366 | 8201 ft | 270 kts | 299° |
| 2026-05-04 10:39 | -5.31946 | 119.47718 | 7675 ft | 269 kts | 299° |
| 2026-05-04 10:40 | -5.31052 | 119.46083 | 7149 ft | 266 kts | 299° |
| 2026-05-04 10:40 | -5.30055 | 119.44535 | 6640 ft | 263 kts | 317° |
| 2026-05-04 10:40 | -5.28478 | 119.43721 | 6155 ft | 255 kts | 354° |
| 2026-05-04 10:40 | -5.26771 | 119.43998 | 5553 ft | 252 kts | 31° |
| 2026-05-04 10:41 | -5.25364 | 119.45026 | 5009 ft | 250 kts | 37° |
| 2026-05-04 10:41 | -5.23900 | 119.45960 | 4499 ft | 248 kts | 31° |
| 2026-05-04 10:41 | -5.22405 | 119.46813 | 3982 ft | 247 kts | 31° |
| 2026-05-04 10:41 | -5.20921 | 119.47660 | 3481 ft | 245 kts | 31° |
| 2026-05-04 10:42 | -5.19454 | 119.48505 | 3066 ft | 239 kts | 31° |
| 2026-05-04 10:42 | -5.18072 | 119.49302 | 2993 ft | 218 kts | 31° |
| 2026-05-04 10:42 | -5.16821 | 119.50023 | 3022 ft | 196 kts | 31° |
| 2026-05-04 10:42 | -5.15712 | 119.50664 | 2921 ft | 175 kts | 31° |
| 2026-05-04 10:43 | -5.14661 | 119.51291 | 2414 ft | 179 kts | 32° |
| 2026-05-04 10:44 | -5.07886 | 119.55177 | 41 ft | 36 kts | 30° |
| 2026-05-04 10:45 | -5.07798 | 119.55228 | 42 ft | 11 kts | 30° |
| 2026-05-04 10:45 | -5.07708 | 119.55233 | 42 ft | 16 kts | 313° |
| 2026-05-04 10:45 | -5.07646 | 119.55128 | 41 ft | 18 kts | 301° |
| 2026-05-04 10:45 | -5.07583 | 119.55014 | 41 ft | 14 kts | 289° |
| 2026-05-04 10:46 | -5.07596 | 119.54925 | 41 ft | 12 kts | 241° |
| 2026-05-04 10:46 | -5.07656 | 119.54881 | 41 ft | 10 kts | 210° |
| 2026-05-04 10:46 | -5.07715 | 119.54846 | 41 ft | 9 kts | 210° |
| 2026-05-04 10:46 | -5.07728 | 119.54800 | 41 ft | 7 kts | 290° |
| 2026-05-04 10:47 | -5.07717 | 119.54780 | 41 ft | 0 kts | 300° |
| 2026-05-04 10:47 | -5.07714 | 119.54776 | 41 ft | 2 kts | 300° |
| 2026-05-04 10:47 | -5.07712 | 119.54772 | 41 ft | 0 kts | 300° |